PAVD METAR and TAF weather

Enter ICAO airport designator
Station Type Date Time Source
PAVD METAR 2021/10/24 20:56 UTC NOAA

PAVD 242056Z 00000KT 10SM FEW070 FEW200 07/00 A2952 RMK AO2 SLP994 T00670000 58010


Station Type Date Time Source
PAVD Decoded METAR 2021/10/24 20:56 UTC NOAA

Valdez 2, AK, United States (PAVD) 61-08N 146-16W
Oct 24, 2021 - 04:56 PM EDT / 2021.10.24 2056 UTC
Wind: Calm:0
Visibility: 10 mile(s):0
Sky conditions: mostly clear
Temperature: 44.1 F (6.7 C)
Dew Point: 32.0 F (0.0 C)
Relative Humidity: 62%
Pressure (altimeter): 29.52 in. Hg (999 hPa)
Pressure tendency: 0.03 inches (1.0 hPa) lower than three hours ago
ob: PAVD 242056Z 00000KT 10SM FEW070 FEW200 07/00 A2952 RMK AO2 SLP994 T00670000 58010
cycle: 21

Station Type Date Time Source
PAVD TAF 2021/10/24 18:45 UTC NOAA

TAF PAVD 241742Z 2418/2518 VRB05KT P6SM FEW030 SCT100
FM250900 07012KT P6SM FEW060 BKN100
AMD LTD TO CLD VIS AND WIND

Example: see airport list